Time;durP1;ratioP1;P1;durP2;ratioP2;P2;SDS_P1;SDS_P2;PMS_P1;PMS_P2;Temp;Humidity;BMP_temperature;BMP_pressure;BME280_temperature;BME280_humidity;BME280_pressure;Samples;Min_cycle;Max_cycle;Signal;HPM_P1;HPM_P2
2021/08/07 00:02:04;;;;;;;8.05;2.50;;;;;;;22.75;53.12;97861.81;5050341;28;20455;-51
2021/08/07 00:04:30;;;;;;;10.65;3.25;;;;;;;22.63;52.98;97856.19;5050428;28;20040;-51
2021/08/07 00:06:55;;;;;;;9.30;3.13;;;;;;;22.51;53.68;97857.47;5035026;28;20036;-52
2021/08/07 00:09:21;;;;;;;14.20;2.45;;;;;;;22.42;53.63;97856.59;5035025;28;20032;-52
2021/08/07 00:11:47;;;;;;;6.18;2.35;;;;;;;22.38;53.75;97849.50;5050283;28;20404;-52
2021/08/07 00:14:12;;;;;;;7.68;3.70;;;;;;;22.32;53.79;97860.28;5034911;28;20499;-51
2021/08/07 00:16:38;;;;;;;4.13;2.08;;;;;;;22.25;53.74;97864.41;5034796;28;20387;-52
2021/08/07 00:19:04;;;;;;;8.43;3.50;;;;;;;22.10;54.31;97860.13;5034872;28;20030;-52
2021/08/07 00:21:30;;;;;;;29.63;26.55;;;;;;;22.11;54.82;97859.84;5034474;28;20088;-52
2021/08/07 00:23:56;;;;;;;8.30;3.17;;;;;;;21.90;55.49;97859.41;5034696;28;20136;-51
2021/08/07 00:26:21;;;;;;;5.57;3.20;;;;;;;21.71;56.20;97858.69;5033719;28;20029;-52
2021/08/07 00:28:47;;;;;;;8.65;3.80;;;;;;;21.74;56.64;97847.41;5034858;28;20405;-52
2021/08/07 00:31:13;;;;;;;13.30;5.95;;;;;;;21.97;56.45;97850.22;5034585;28;20068;-52
2021/08/07 00:33:38;;;;;;;10.55;8.23;;;;;;;21.89;56.09;97857.03;5049897;28;20083;-52
2021/08/07 00:36:04;;;;;;;14.55;12.80;;;;;;;21.65;57.06;97855.31;5034775;28;20454;-52
2021/08/07 00:38:30;;;;;;;7.20;4.63;;;;;;;21.60;57.51;97854.59;5033170;28;20025;-51
2021/08/07 00:40:55;;;;;;;33.33;22.80;;;;;;;21.39;57.53;97857.59;5034291;28;20104;-52
2021/08/07 00:43:21;;;;;;;8.77;5.47;;;;;;;21.10;58.36;97868.41;5034586;28;20025;-52
2021/08/07 00:45:47;;;;;;;7.88;2.85;;;;;;;21.14;58.61;97858.75;5034326;28;20025;-52
2021/08/07 00:48:12;;;;;;;9.75;7.03;;;;;;;21.06;58.44;97862.06;5034272;28;20029;-52
2021/08/07 00:50:38;;;;;;;5.43;3.97;;;;;;;20.98;58.70;97863.50;5032880;28;20119;-52
2021/08/07 00:53:06;;;;;;;12.45;4.60;;;;;;;20.78;59.09;97863.78;5034483;28;20029;-52
2021/08/07 00:55:33;;;;;;;10.68;2.90;;;;;;;20.58;59.79;97865.59;5034152;28;20407;-52
2021/08/07 00:57:59;;;;;;;12.65;9.68;;;;;;;20.75;60.29;97863.28;5034043;28;20028;-51
2021/08/07 01:00:25;;;;;;;20.30;18.15;;;;;;;21.18;59.04;97865.09;5016143;28;20034;-52
2021/08/07 01:03:16;;;;;;;5.72;2.85;;;;;;;21.47;58.46;97854.28;5034046;28;20021;-51
2021/08/07 01:05:51;;;;;;;6.50;2.65;;;;;;;21.69;57.39;97855.50;5033734;28;20495;-52
2021/08/07 01:08:22;;;;;;;7.45;3.03;;;;;;;21.72;57.25;97852.25;5049335;28;20025;-52
2021/08/07 01:11:23;;;;;;;9.73;4.70;;;;;;;21.87;57.03;97860.03;5034097;28;20033;-52
2021/08/07 01:13:58;;;;;;;7.32;3.28;;;;;;;22.00;57.04;97846.97;5033826;28;20014;-52
2021/08/07 01:16:30;;;;;;;;;;;;;;;21.92;56.33;97846.56;5034194;28;20488;-52
2021/08/07 01:18:59;;;;;;;5.90;3.55;;;;;;;21.90;56.43;97855.97;5033664;28;20397;-51
2021/08/07 01:21:35;;;;;;;7.38;2.92;;;;;;;21.63;56.88;97852.16;5048575;28;20042;-51
2021/08/07 01:24:23;;;;;;;16.58;13.50;;;;;;;21.35;58.03;97843.25;5033611;28;20032;-51
2021/08/07 01:27:02;;;;;;;9.55;2.97;;;;;;;21.38;57.67;97842.63;5033587;28;20075;-52
2021/08/07 01:29:29;;;;;;;11.48;7.38;;;;;;;21.18;58.13;97846.41;5033448;28;20025;-51
2021/08/07 01:31:55;;;;;;;14.45;5.53;;;;;;;20.81;59.09;97842.69;5033674;28;20439;-52
2021/08/07 01:34:22;;;;;;;31.70;28.88;;;;;;;20.77;59.44;97843.56;5033396;28;20487;-51
2021/08/07 01:36:48;;;;;;;9.32;6.03;;;;;;;20.78;59.45;97848.59;5033343;28;20037;-52
2021/08/07 01:39:15;;;;;;;45.30;40.55;;;;;;;20.53;59.51;97852.34;5033331;28;20025;-52
2021/08/07 01:41:41;;;;;;;15.88;9.43;;;;;;;20.25;60.30;97865.47;5033164;28;20030;-52
2021/08/07 01:44:06;;;;;;;12.70;8.23;;;;;;;19.88;61.43;97858.94;5031968;28;20025;-51
2021/08/07 01:46:58;;;;;;;7.90;4.57;;;;;;;19.62;62.62;97863.66;5033178;28;20483;-51
2021/08/07 01:49:45;;;;;;;8.27;5.85;;;;;;;19.84;62.51;97863.22;5033033;28;20032;-52
2021/08/07 01:52:18;;;;;;;9.02;4.90;;;;;;;20.39;61.47;97857.59;5033083;28;20025;-52
2021/08/07 01:54:52;;;;;;;12.05;7.55;;;;;;;20.81;60.49;97863.25;5033069;28;20053;-51
2021/08/07 01:57:24;;;;;;;17.00;5.55;;;;;;;21.27;59.51;97863.38;5032974;28;20033;-52
2021/08/07 01:59:51;;;;;;;22.73;19.23;;;;;;;21.80;58.36;97861.47;5048240;28;20064;-52
2021/08/07 02:02:18;;;;;;;6.07;3.10;;;;;;;22.22;56.82;97852.41;5032857;28;20040;-52
2021/08/07 02:04:44;;;;;;;9.52;5.35;;;;;;;22.25;56.44;97854.50;5032832;28;20018;-52
2021/08/07 02:07:11;;;;;;;13.90;5.63;;;;;;;22.25;56.40;97853.72;5032778;28;20022;-53
2021/08/07 02:09:38;;;;;;;14.10;9.82;;;;;;;22.34;56.09;97850.06;5032744;28;20031;-52
2021/08/07 02:12:05;;;;;;;12.15;6.10;;;;;;;22.41;56.03;97848.88;5031337;28;20069;-52
2021/08/07 02:14:32;;;;;;;15.38;10.38;;;;;;;22.48;55.51;97844.72;5047917;28;20022;-51
2021/08/07 02:17:01;;;;;;;10.25;3.50;;;;;;;22.50;55.30;97839.84;5032614;28;20060;-52
2021/08/07 02:19:27;;;;;;;8.90;2.83;;;;;;;22.27;55.61;97846.19;5032252;28;20026;-52
2021/08/07 02:21:53;;;;;;;9.75;2.25;;;;;;;21.73;56.33;97835.13;5032200;28;20470;-52
2021/08/07 02:24:19;;;;;;;6.88;2.50;;;;;;;21.13;57.58;97831.28;5032443;28;20430;-52
2021/08/07 02:26:46;;;;;;;8.30;4.35;;;;;;;20.74;58.89;97831.56;5032345;28;20022;-51
2021/08/07 02:29:11;;;;;;;9.23;3.25;;;;;;;20.57;59.41;97833.94;5032427;28;20023;-52
2021/08/07 02:31:39;;;;;;;7.35;3.50;;;;;;;20.74;59.93;97819.06;5032292;28;20124;-52
2021/08/07 02:34:05;;;;;;;10.80;5.40;;;;;;;21.10;59.26;97809.72;5032248;28;20507;-52
2021/08/07 02:36:31;;;;;;;6.00;2.80;;;;;;;21.30;58.10;97806.72;5032249;28;20121;-52
2021/08/07 02:38:59;;;;;;;4.32;2.05;;;;;;;21.19;57.79;97804.50;5032152;28;20049;-52
2021/08/07 02:41:26;;;;;;;14.63;8.35;;;;;;;21.00;58.11;97807.22;5032306;28;20482;-51
2021/08/07 02:43:53;;;;;;;9.48;4.85;;;;;;;21.01;58.43;97806.16;5032137;28;20113;-51
2021/08/07 02:46:19;;;;;;;8.07;4.53;;;;;;;21.00;58.66;97793.88;5032084;28;20029;-52
2021/08/07 02:48:45;;;;;;;16.38;13.32;;;;;;;20.72;59.16;97794.53;5032359;28;20143;-51
2021/08/07 02:51:11;;;;;;;6.15;4.75;;;;;;;20.45;59.89;97787.16;5032031;28;20025;-52
2021/08/07 02:53:37;;;;;;;7.68;4.00;;;;;;;20.43;60.18;97780.53;5031931;28;20580;-51
2021/08/07 02:56:03;;;;;;;8.07;4.32;;;;;;;20.43;60.35;97769.88;5047296;28;20029;-52
2021/08/07 02:58:30;;;;;;;9.13;3.20;;;;;;;20.19;60.73;97767.25;5047213;28;20040;-52
2021/08/07 03:00:56;;;;;;;7.10;4.45;;;;;;;19.86;61.78;97757.22;5031843;28;20067;-52
2021/08/07 03:03:21;;;;;;;6.07;3.13;;;;;;;19.53;62.84;97764.19;5031878;28;20529;-52
2021/08/07 03:05:47;;;;;;;13.85;8.68;;;;;;;19.25;63.78;97763.91;5032072;28;20057;-52
2021/08/07 03:08:13;;;;;;;17.13;10.15;;;;;;;19.41;63.71;97761.91;5030525;28;20026;-52
2021/08/07 03:10:39;;;;;;;8.93;3.05;;;;;;;19.38;63.48;97767.78;5032060;28;20117;-52
2021/08/07 03:13:04;;;;;;;75.00;48.67;;;;;;;19.32;63.57;97759.06;5047128;28;20517;-52
2021/08/07 03:15:30;;;;;;;5.43;2.53;;;;;;;19.18;63.92;97758.13;5031719;28;20026;-51
2021/08/07 03:17:56;;;;;;;6.25;2.72;;;;;;;18.96;64.46;97761.22;5031792;28;20097;-52
2021/08/07 03:20:30;;;;;;;5.97;2.85;;;;;;;18.82;64.72;97755.75;5031337;28;20049;-52
2021/08/07 03:23:01;;;;;;;9.83;5.80;;;;;;;18.76;65.06;97756.81;5031707;28;20044;-52
2021/08/07 03:25:27;;;;;;;5.75;2.10;;;;;;;18.67;65.31;97755.81;5031631;28;20040;-51
2021/08/07 03:27:52;;;;;;;12.13;7.35;;;;;;;18.62;65.45;97746.00;5031871;28;20025;-51
2021/08/07 03:30:19;;;;;;;8.48;5.65;;;;;;;18.70;65.56;97752.59;5034471;28;20388;-51
2021/08/07 03:32:45;;;;;;;13.00;8.00;;;;;;;18.77;65.55;97761.88;5035953;28;20096;-51
2021/08/07 03:35:11;;;;;;;7.75;2.40;;;;;;;18.81;65.16;97758.66;5035655;28;20579;-51
2021/08/07 03:37:37;;;;;;;34.33;24.70;;;;;;;18.90;65.69;97762.34;5050853;28;20104;-52
2021/08/07 03:40:03;;;;;;;18.70;7.45;;;;;;;19.63;65.26;97756.09;5034428;28;20535;-51
2021/08/07 03:42:29;;;;;;;27.05;23.38;;;;;;;20.40;62.62;97757.09;5035805;28;20372;-52
2021/08/07 03:44:55;;;;;;;9.30;3.53;;;;;;;20.59;61.89;97751.81;5035486;28;20028;-52
2021/08/07 03:47:22;;;;;;;5.78;2.63;;;;;;;20.50;61.42;97748.97;5035398;28;20068;-51
2021/08/07 03:49:48;;;;;;;8.95;3.10;;;;;;;20.25;61.71;97752.78;5034066;28;20021;-51
2021/08/07 03:52:13;;;;;;;7.65;2.88;;;;;;;19.99;62.38;97749.63;5035304;28;20839;-52
2021/08/07 03:54:39;;;;;;;63.22;57.53;;;;;;;19.83;63.28;97746.34;5035323;28;20025;-52
2021/08/07 03:57:05;;;;;;;7.25;3.90;;;;;;;20.10;63.42;97757.22;5017452;28;20036;-52
2021/08/07 03:59:30;;;;;;;6.05;2.33;;;;;;;20.38;62.32;97748.59;5035223;28;20021;-52
2021/08/07 04:01:56;;;;;;;7.05;2.70;;;;;;;20.27;61.99;97745.28;5035066;28;20040;-52
2021/08/07 04:04:22;;;;;;;9.20;3.45;;;;;;;20.08;62.90;97743.38;5035120;28;20025;-52
2021/08/07 04:06:47;;;;;;;11.82;3.53;;;;;;;20.41;62.74;97740.81;5035041;28;20083;-52
2021/08/07 04:09:13;;;;;;;9.02;3.50;;;;;;;20.82;61.66;97732.25;5035004;28;20017;-52
2021/08/07 04:11:39;;;;;;;17.75;11.55;;;;;;;21.17;60.42;97743.44;5035034;28;20034;-52
2021/08/07 04:14:05;;;;;;;27.45;24.25;;;;;;;21.39;59.90;97734.81;5034927;28;20024;-52
2021/08/07 04:16:33;;;;;;;9.70;6.53;;;;;;;21.50;59.12;97725.53;5034846;28;20029;-52
2021/08/07 04:19:00;;;;;;;7.63;2.08;;;;;;;21.59;59.05;97725.66;5034915;28;20464;-52
2021/08/07 04:21:26;;;;;;;17.92;11.10;;;;;;;21.33;58.75;97711.97;5034580;28;20454;-52
2021/08/07 04:23:52;;;;;;;6.47;2.97;;;;;;;20.86;59.79;97719.91;5033487;28;20022;-52
2021/08/07 04:26:20;;;;;;;13.82;4.28;;;;;;;20.59;60.78;97725.94;5034933;28;20387;-51
2021/08/07 04:28:46;;;;;;;26.77;24.02;;;;;;;20.84;60.76;97737.31;5033404;28;20022;-52
2021/08/07 04:31:12;;;;;;;15.07;3.97;;;;;;;21.29;59.76;97741.09;5033242;28;20577;-51
2021/08/07 04:33:38;;;;;;;8.02;2.75;;;;;;;21.64;58.82;97746.13;5034646;28;20052;-52
2021/08/07 04:36:04;;;;;;;16.17;9.00;;;;;;;21.73;58.06;97753.16;5034503;28;20048;-52
2021/08/07 04:38:31;;;;;;;21.02;12.35;;;;;;;21.68;58.26;97745.22;5034540;28;20021;-52
2021/08/07 04:40:56;;;;;;;7.40;2.40;;;;;;;21.71;57.99;97741.16;5033737;28;20022;-52
2021/08/07 04:43:23;;;;;;;8.20;2.95;;;;;;;21.40;58.37;97733.69;5049704;28;20036;-52
2021/08/07 04:45:49;;;;;;;10.18;4.45;;;;;;;21.17;59.29;97726.63;5034592;28;20057;-52
2021/08/07 04:48:15;;;;;;;10.40;2.75;;;;;;;21.01;59.50;97731.44;5034284;28;20518;-52
2021/08/07 04:50:41;;;;;;;6.00;3.22;;;;;;;20.79;60.12;97732.84;5049605;28;20029;-52
2021/08/07 04:53:07;;;;;;;9.15;2.90;;;;;;;20.52;60.69;97739.63;5034220;28;20033;-52
2021/08/07 04:55:36;;;;;;;20.02;8.65;;;;;;;20.30;61.67;97750.03;5032824;28;20036;-52
2021/08/07 04:58:02;;;;;;;19.02;9.73;;;;;;;20.48;61.90;97751.94;5034117;28;20101;-52
2021/08/07 05:00:27;;;;;;;18.30;16.50;;;;;;;20.78;61.05;97744.59;5033972;28;20021;-52
2021/08/07 05:02:53;;;;;;;409.13;365.85;;;;;;;20.80;60.74;97754.97;5034303;28;20112;-51
2021/08/07 05:05:19;;;;;;;20.00;15.32;;;;;;;20.71;60.83;97749.50;5033965;28;20551;-52
2021/08/07 05:07:47;;;;;;;5.90;2.92;;;;;;;20.65;61.16;97748.00;5034196;28;20025;-52
2021/08/07 05:10:13;;;;;;;12.25;2.78;;;;;;;20.47;61.26;97725.56;5033891;28;20025;-52
2021/08/07 05:12:40;;;;;;;69.35;61.80;;;;;;;20.34;62.01;97719.06;5033839;28;20029;-52
2021/08/07 05:15:06;;;;;;;147.90;133.52;;;;;;;20.53;62.25;97730.53;5033769;28;20502;-51
2021/08/07 05:17:32;;;;;;;13.80;9.02;;;;;;;21.05;61.06;97733.22;5033761;28;20553;-52
2021/08/07 05:19:58;;;;;;;12.07;5.35;;;;;;;21.28;59.93;97736.06;5048708;28;20045;-52
2021/08/07 05:22:24;;;;;;;7.70;3.45;;;;;;;21.48;59.65;97741.06;5033617;28;20099;-52
2021/08/07 05:24:50;;;;;;;10.05;6.45;;;;;;;21.74;59.04;97725.34;5033908;28;20048;-52
2021/08/07 05:27:16;;;;;;;18.52;14.07;;;;;;;22.17;58.19;97712.75;5033811;28;20381;-52
2021/08/07 05:29:42;;;;;;;8.48;5.95;;;;;;;22.24;57.34;97708.59;5033495;28;20108;-52
2021/08/07 05:32:08;;;;;;;11.38;3.22;;;;;;;22.50;57.17;97711.50;5032115;28;20384;-52
2021/08/07 05:34:33;;;;;;;25.40;15.18;;;;;;;22.49;56.72;97715.25;5033462;28;20156;-52
2021/08/07 05:36:59;;;;;;;10.63;3.33;;;;;;;22.47;56.52;97712.09;5033396;28;20030;-51
2021/08/07 05:39:25;;;;;;;10.27;3.15;;;;;;;22.40;56.42;97722.44;5032056;28;20075;-52
2021/08/07 05:41:51;;;;;;;4.82;2.30;;;;;;;22.26;56.38;97724.34;5033194;28;20034;-52
2021/08/07 05:44:16;;;;;;;13.40;8.18;;;;;;;22.16;57.13;97727.22;5048636;28;20025;-52
2021/08/07 05:46:42;;;;;;;7.63;4.32;;;;;;;22.14;57.01;97725.63;5033256;28;20035;-52
2021/08/07 05:49:08;;;;;;;9.85;3.17;;;;;;;22.05;57.27;97716.72;5048449;28;20104;-52
2021/08/07 05:51:35;;;;;;;20.17;16.20;;;;;;;22.01;57.74;97714.94;5031775;28;20029;-51
2021/08/07 05:54:04;;;;;;;14.95;7.10;;;;;;;21.97;57.73;97711.28;5032394;28;20068;-51
2021/08/07 05:56:31;;;;;;;6.65;2.90;;;;;;;22.11;57.69;97709.38;5033009;28;20047;-52
2021/08/07 05:58:57;;;;;;;3.15;1.90;;;;;;;22.00;57.29;97702.69;5048254;28;20038;-51
2021/08/07 06:01:23;;;;;;;12.02;8.85;;;;;;;21.57;58.07;97703.00;5032995;28;20112;-51
2021/08/07 06:03:49;;;;;;;6.85;3.53;;;;;;;21.56;58.72;97710.22;5032854;28;20459;-52
2021/08/07 06:06:15;;;;;;;22.52;15.77;;;;;;;21.74;58.14;97714.66;5048133;28;20032;-52
2021/08/07 06:08:40;;;;;;;9.93;7.00;;;;;;;22.12;57.89;97714.44;5032815;28;20057;-52
2021/08/07 06:11:06;;;;;;;10.50;5.70;;;;;;;22.52;56.51;97720.03;5032637;28;20065;-52
2021/08/07 06:13:32;;;;;;;9.02;6.57;;;;;;;22.68;55.76;97712.44;5031377;28;20399;-51
2021/08/07 06:15:57;;;;;;;4.28;2.80;;;;;;;22.25;56.10;97725.44;5032494;28;20029;-51
2021/08/07 06:18:23;;;;;;;8.40;3.30;;;;;;;21.94;57.11;97716.16;5047878;28;20025;-52
2021/08/07 06:20:49;;;;;;;7.75;2.78;;;;;;;21.89;57.53;97705.56;5032235;28;20037;-51
2021/08/07 06:23:15;;;;;;;9.55;2.60;;;;;;;21.66;57.61;97695.88;5047748;28;20064;-52
2021/08/07 06:25:42;;;;;;;7.50;3.40;;;;;;;21.33;58.28;97704.72;5032702;28;20392;-52
2021/08/07 06:28:07;;;;;;;4.93;2.75;;;;;;;21.15;58.91;97713.59;5031462;28;20399;-51
2021/08/07 06:30:33;;;;;;;33.00;30.00;;;;;;;21.06;60.29;97707.34;5032262;28;20038;-52
2021/08/07 06:32:59;;;;;;;15.52;5.78;;;;;;;21.08;61.44;97705.97;5032341;28;20434;-51
2021/08/07 06:35:25;;;;;;;24.98;20.15;;;;;;;21.32;60.83;97708.47;5047913;28;20430;-51
2021/08/07 06:37:52;;;;;;;11.27;3.95;;;;;;;21.77;59.68;97707.16;5032230;28;20110;-52
2021/08/07 06:40:20;;;;;;;16.65;10.82;;;;;;;22.19;58.38;97702.56;5032061;28;20036;-51
2021/08/07 06:42:46;;;;;;;73.65;65.72;;;;;;;22.53;57.24;97705.53;5030890;28;20033;-52
2021/08/07 06:45:13;;;;;;;48.95;43.85;;;;;;;22.84;56.12;97704.84;5030820;28;20029;-52
2021/08/07 06:47:41;;;;;;;21.08;16.15;;;;;;;23.13;54.90;97695.59;5032054;28;20029;-51
2021/08/07 06:50:08;;;;;;;70.25;57.10;;;;;;;23.34;54.60;97693.16;5032024;28;20018;-51
2021/08/07 06:52:34;;;;;;;17.02;10.63;;;;;;;23.58;54.19;97703.50;5047316;28;20522;-51
2021/08/07 06:55:00;;;;;;;21.08;5.60;;;;;;;23.79;53.53;97698.41;5032026;28;20030;-51
2021/08/07 06:57:26;;;;;;;13.07;7.10;;;;;;;23.93;53.25;97707.13;5031955;28;20030;-52
2021/08/07 06:59:52;;;;;;;14.35;12.45;;;;;;;24.02;52.88;97711.72;5032180;28;20027;-52
2021/08/07 07:02:19;;;;;;;9.95;4.80;;;;;;;24.21;52.09;97714.13;5047106;28;20116;-51
2021/08/07 07:04:45;;;;;;;5.45;2.45;;;;;;;24.20;51.80;97715.22;5031651;28;20036;-52
2021/08/07 07:07:11;;;;;;;7.80;4.28;;;;;;;24.17;51.74;97721.22;5031777;28;20026;-51
2021/08/07 07:09:37;;;;;;;28.35;25.60;;;;;;;24.06;52.07;97723.38;5031856;28;20032;-52
2021/08/07 07:12:03;;;;;;;6.00;2.55;;;;;;;24.11;52.03;97724.03;5031810;28;20033;-51
2021/08/07 07:14:29;;;;;;;13.23;7.68;;;;;;;24.06;52.50;97721.47;5030436;28;20081;-51
2021/08/07 07:16:54;;;;;;;10.88;2.78;;;;;;;23.96;53.09;97726.34;5046946;28;20021;-51
2021/08/07 07:19:20;;;;;;;7.35;2.67;;;;;;;23.92;52.76;97736.91;5031975;28;20021;-52
2021/08/07 07:21:46;;;;;;;11.52;3.22;;;;;;;23.90;52.58;97739.91;5046378;28;20572;-52
2021/08/07 07:24:15;;;;;;;135.25;94.57;;;;;;;23.91;52.38;97751.41;5046921;28;20542;-52
2021/08/07 07:26:41;;;;;;;20.10;12.35;;;;;;;23.90;51.83;97760.53;5031691;28;20474;-51
2021/08/07 07:29:06;;;;;;;48.08;43.15;;;;;;;23.76;52.29;97763.28;5031632;28;20045;-52
2021/08/07 07:31:32;;;;;;;23.73;15.82;;;;;;;23.66;52.71;97771.59;5031861;28;20037;-52
2021/08/07 07:33:58;;;;;;;12.02;7.72;;;;;;;23.37;53.07;97790.84;5031536;28;20032;-52
2021/08/07 07:36:24;;;;;;;10.23;5.00;;;;;;;23.15;53.64;97780.94;5030260;28;20022;-52
2021/08/07 07:38:50;;;;;;;8.60;3.72;;;;;;;22.99;54.29;97788.50;5030425;28;20029;-51
2021/08/07 07:41:19;;;;;;;6.18;3.72;;;;;;;22.79;55.72;97785.22;5031442;28;20403;-51
2021/08/07 07:43:48;;;;;;;8.75;6.07;;;;;;;22.66;57.92;97783.38;5031519;28;20049;-51
2021/08/07 07:46:13;;;;;;;21.02;18.90;;;;;;;22.34;58.86;97793.94;5031476;28;20021;-52
2021/08/07 07:48:40;;;;;;;12.52;8.23;;;;;;;21.98;61.20;97804.50;5031399;28;20032;-52
2021/08/07 07:51:06;;;;;;;7.18;2.10;;;;;;;21.81;63.79;97801.63;5031405;28;20033;-52
2021/08/07 07:53:32;;;;;;;8.30;3.25;;;;;;;21.86;65.08;97804.22;5031436;28;20032;-52
2021/08/07 07:55:58;;;;;;;6.22;3.65;;;;;;;21.90;64.28;97807.88;5031397;28;20021;-51
2021/08/07 07:58:24;;;;;;;8.05;5.38;;;;;;;21.72;64.90;97813.00;5031369;28;20029;-51
2021/08/07 08:00:52;;;;;;;7.55;4.18;;;;;;;21.55;66.03;97812.78;5031262;28;20021;-51
2021/08/07 08:03:19;;;;;;;14.23;10.65;;;;;;;21.46;66.39;97814.53;5031357;28;20025;-51
2021/08/07 08:05:44;;;;;;;9.23;4.45;;;;;;;21.39;66.46;97806.88;5046543;28;20022;-52
2021/08/07 08:08:10;;;;;;;11.82;3.95;;;;;;;21.27;66.68;97809.19;5031344;28;20025;-51
2021/08/07 08:10:38;;;;;;;11.63;8.82;;;;;;;21.08;68.58;97811.88;5031243;28;20029;-51
2021/08/07 08:13:04;;;;;;;6.18;2.58;;;;;;;20.91;68.25;97817.75;5031163;28;20531;-50
2021/08/07 08:15:30;;;;;;;12.45;6.90;;;;;;;20.80;69.01;97816.31;5046638;28;20128;-51
2021/08/07 08:17:55;;;;;;;8.25;3.65;;;;;;;20.74;69.58;97816.38;5034702;28;20112;-51
2021/08/07 08:20:21;;;;;;;18.60;9.70;;;;;;;20.61;70.39;97819.75;5034556;28;20411;-51
2021/08/07 08:22:47;;;;;;;12.35;8.98;;;;;;;20.48;70.96;97818.56;5034717;28;20491;-50
2021/08/07 08:25:14;;;;;;;7.43;3.00;;;;;;;20.32;71.97;97817.97;5034977;28;20446;-52
2021/08/07 08:27:40;;;;;;;20.63;17.25;;;;;;;20.10;72.00;97820.34;5034741;28;20040;-51
2021/08/07 08:30:09;;;;;;;9.27;4.60;;;;;;;19.83;72.41;97820.91;5034623;28;20067;-51
2021/08/07 08:32:35;;;;;;;18.95;9.98;;;;;;;19.65;73.24;97817.84;5034627;28;20018;-51
2021/08/07 08:35:00;;;;;;;12.15;8.18;;;;;;;19.59;73.81;97818.97;5033253;28;20029;-51
2021/08/07 08:37:26;;;;;;;14.65;5.47;;;;;;;19.56;74.05;97816.88;5033262;28;20487;-52
2021/08/07 08:39:52;;;;;;;10.95;4.53;;;;;;;19.42;74.51;97815.91;5034717;28;20060;-51
2021/08/07 08:42:21;;;;;;;14.43;8.27;;;;;;;19.41;75.38;97820.44;5034383;28;20025;-51
2021/08/07 08:44:47;;;;;;;14.75;7.63;;;;;;;19.50;75.54;97810.00;5034354;28;20796;-52
2021/08/07 08:47:18;;;;;;;14.55;8.55;;;;;;;19.63;75.14;97812.00;5034302;28;20024;-52
2021/08/07 08:49:45;;;;;;;8.63;4.15;;;;;;;19.70;74.91;97819.69;5034337;28;20030;-52
2021/08/07 08:52:15;;;;;;;77.10;69.88;;;;;;;19.64;75.37;97820.78;5034516;28;20095;-52
2021/08/07 08:54:42;;;;;;;5.78;4.97;;;;;;;19.73;74.93;97821.78;5034293;28;20049;-52
2021/08/07 08:57:08;;;;;;;12.15;4.90;;;;;;;19.87;74.59;97817.38;5034068;28;20017;-52
2021/08/07 08:59:33;;;;;;;12.45;10.35;;;;;;;20.08;74.08;97814.50;5049467;28;20095;-52
2021/08/07 09:01:59;;;;;;;10.82;5.22;;;;;;;20.03;73.30;97801.25;5034012;28;20120;-52
2021/08/07 09:04:26;;;;;;;9.82;3.92;;;;;;;19.94;73.81;97809.06;5049422;28;20028;-51
2021/08/07 09:06:53;;;;;;;7.88;4.07;;;;;;;19.90;73.68;97806.19;5033878;28;20032;-52
2021/08/07 09:09:39;;;;;;;12.43;8.60;;;;;;;19.71;73.49;97792.78;5034247;28;20376;-52
2021/08/07 09:12:06;;;;;;;13.13;8.20;;;;;;;19.63;74.71;97798.69;5033866;28;20033;-52
2021/08/07 09:14:38;;;;;;;8.93;3.63;;;;;;;19.50;75.07;97786.06;5049302;28;20033;-52
2021/08/07 09:17:17;;;;;;;10.23;6.75;;;;;;;19.41;75.52;97782.41;5033821;28;20072;-52
2021/08/07 09:19:43;;;;;;;19.77;13.48;;;;;;;19.38;76.14;97772.31;5033632;28;20026;-52
2021/08/07 09:22:18;;;;;;;21.10;11.52;;;;;;;19.58;77.31;97766.81;5033637;28;20144;-52
2021/08/07 09:24:53;;;;;;;;;;;;;;;19.92;77.82;97772.06;5049474;28;20114;-52
2021/08/07 09:27:32;;;;;;;7.20;3.90;;;;;;;20.27;75.57;97787.91;5033524;28;19909;-52
2021/08/07 09:30:00;;;;;;;5.25;3.05;;;;;;;20.00;74.80;97793.81;5033792;28;20406;-52
2021/08/07 09:32:26;;;;;;;7.18;4.43;;;;;;;19.78;75.23;97802.31;5033531;28;20029;-51
2021/08/07 09:35:07;;;;;;;13.98;8.35;;;;;;;19.87;75.91;97789.97;5033510;28;20521;-52
2021/08/07 09:37:33;;;;;;;17.25;11.60;;;;;;;20.14;75.00;97803.53;5032102;28;20030;-52
2021/08/07 09:40:02;;;;;;;7.50;3.22;;;;;;;20.09;74.33;97813.44;5048685;28;20036;-52
2021/08/07 09:42:31;;;;;;;8.40;3.80;;;;;;;19.95;73.67;97800.78;5033300;28;20021;-51
2021/08/07 09:45:08;;;;;;;9.90;7.15;;;;;;;19.77;73.36;97793.53;5033233;28;20029;-53
2021/08/07 09:47:34;;;;;;;6.22;3.22;;;;;;;19.72;73.86;97790.94;5033504;28;20108;-52
2021/08/07 09:50:01;;;;;;;12.23;9.10;;;;;;;19.72;74.23;97794.38;5033151;28;20017;-51
2021/08/07 09:52:38;;;;;;;19.75;17.95;;;;;;;20.10;73.78;97791.84;5033087;28;20075;-52
2021/08/07 09:55:07;;;;;;;7.53;4.65;;;;;;;20.26;72.73;97775.66;5048355;28;20026;-52
2021/08/07 09:57:33;;;;;;;32.67;29.40;;;;;;;20.19;73.21;97773.34;5033055;28;20017;-51
2021/08/07 09:59:59;;;;;;;19.25;16.98;;;;;;;20.02;73.95;97773.81;5032972;28;20052;-52
2021/08/07 10:02:40;;;;;;;9.82;6.38;;;;;;;19.79;75.44;97769.28;5032750;28;20522;-51
2021/08/07 10:05:11;;;;;;;17.45;13.35;;;;;;;19.63;76.59;97774.72;5032908;28;20064;-52
2021/08/07 10:07:38;;;;;;;7.45;4.68;;;;;;;19.52;76.72;97768.72;5033144;28;20036;-51
2021/08/07 10:10:23;;;;;;;8.05;4.82;;;;;;;19.40;77.20;97770.97;5031560;28;20064;-51
2021/08/07 10:12:50;;;;;;;5.18;3.05;;;;;;;19.28;76.58;97751.94;5032857;28;20029;-52
2021/08/07 10:15:15;;;;;;;17.00;15.23;;;;;;;19.09;76.71;97747.28;5014920;28;20033;-52
2021/08/07 10:17:43;;;;;;;75.45;68.65;;;;;;;18.95;76.86;97788.88;5032575;28;20083;-52
2021/08/07 10:20:14;;;;;;;10.55;6.25;;;;;;;18.91;77.91;97833.03;5032133;28;20521;-51
2021/08/07 10:22:40;;;;;;;62.63;56.35;;;;;;;19.04;78.69;97840.41;5032503;28;20388;-52
2021/08/07 10:25:08;;;;;;;10.93;4.63;;;;;;;19.08;78.82;97843.31;5047740;28;20441;-51
2021/08/07 10:27:36;;;;;;;14.70;11.32;;;;;;;18.80;77.41;97856.25;5032508;28;20028;-51
2021/08/07 10:30:06;;;;;;;15.85;4.32;;;;;;;18.21;77.23;97888.84;5032668;28;20017;-50
2021/08/07 10:32:40;;;;;;;82.18;73.07;;;;;;;17.79;79.89;97888.09;5032341;28;20053;-51
2021/08/07 10:35:10;;;;;;;16.63;14.35;;;;;;;17.75;80.56;97917.03;5032561;28;20037;-50
2021/08/07 10:37:42;;;;;;;16.48;7.93;;;;;;;17.67;81.48;97945.97;5032282;28;20021;-51
2021/08/07 10:43:44;;;;;;;20.13;13.38;;;;;;;17.65;81.50;97853.34;5032330;28;20052;-51
2021/08/07 10:46:16;;;;;;;19.10;6.95;;;;;;;17.39;81.97;97860.50;5031783;28;20041;-51
2021/08/07 10:48:42;;;;;;;21.52;9.73;;;;;;;17.26;82.36;97826.53;5032107;28;20083;-52
2021/08/07 10:51:23;;;;;;;14.35;11.00;;;;;;;17.19;83.38;97818.06;5047394;28;20025;-52
2021/08/07 10:53:51;;;;;;;76.55;66.70;;;;;;;17.36;83.94;97874.28;5047315;28;20025;-51
2021/08/07 10:56:29;;;;;;;35.72;30.63;;;;;;;17.61;84.36;97900.03;5032013;28;20104;-52
2021/08/07 10:58:56;;;;;;;11.85;8.70;;;;;;;17.49;82.78;97867.69;5031979;28;20555;-51
2021/08/07 11:01:25;;;;;;;19.00;11.45;;;;;;;17.10;81.85;97871.63;5031930;28;20033;-52
2021/08/07 11:04:03;;;;;;;25.80;18.33;;;;;;;16.85;83.25;97853.78;5031905;28;20029;-52
2021/08/07 11:06:38;;;;;;;65.07;57.67;;;;;;;16.99;84.35;97874.50;5031871;28;20096;-51
2021/08/07 11:09:33;;;;;;;13.18;10.57;;;;;;;17.05;83.88;97873.47;5031907;28;20025;-51
2021/08/07 11:12:11;;;;;;;24.17;20.60;;;;;;;16.91;83.72;97849.31;5032198;28;20112;-50
2021/08/07 11:14:40;;;;;;;27.85;17.70;;;;;;;16.79;83.68;97833.59;5031833;28;20399;-50
2021/08/07 11:17:05;;;;;;;15.25;12.90;;;;;;;16.67;84.56;97811.84;5031745;28;20491;-51
2021/08/07 11:20:00;;;;;;;8.30;5.97;;;;;;;16.55;84.64;97822.69;5047033;28;20028;-51
2021/08/07 11:22:31;;;;;;;11.38;7.97;;;;;;;16.54;84.86;97816.59;5031724;28;20034;-51
2021/08/07 11:25:05;;;;;;;10.75;8.68;;;;;;;16.48;83.89;97816.81;5031748;28;20028;-51
2021/08/07 11:27:52;;;;;;;18.63;12.40;;;;;;;16.36;84.25;97767.53;5031797;28;20037;-50
2021/08/07 11:30:30;;;;;;;11.23;10.05;;;;;;;16.16;84.65;97792.09;5031681;28;20029;-51
2021/08/07 11:35:33;;;;;;;8.77;5.13;;;;;;;16.10;84.00;97884.97;5031600;28;20454;-52
2021/08/07 11:38:14;;;;;;;2.70;1.60;;;;;;;16.04;84.07;97862.19;5031589;28;20064;-53